Time;durP1;ratioP1;P1;durP2;ratioP2;P2;SDS_P1;SDS_P2;PMS_P1;PMS_P2;Temp;Humidity;BMP_temperature;BMP_pressure;BME280_temperature;BME280_humidity;BME280_pressure;Samples;Min_cycle;Max_cycle;Signal;HPM_P1;HPM_P2
2022/07/05 00:01:24;;;;;;;4.13;1.63;;;;;;;16.36;48.97;100291.66;10468345;28;20047;-63
2022/07/05 00:06:26;;;;;;;3.13;1.60;;;;;;;16.39;48.89;100298.47;10467547;28;20197;-63
2022/07/05 00:11:28;;;;;;;4.28;1.50;;;;;;;16.31;49.19;100295.59;10468351;28;20384;-63
2022/07/05 00:16:29;;;;;;;4.70;1.80;;;;;;;16.18;49.74;100295.72;10466656;28;20040;-63
2022/07/05 00:21:31;;;;;;;5.72;1.60;;;;;;;16.10;50.03;100298.94;10449822;28;20504;-62
2022/07/05 00:26:33;;;;;;;7.82;1.85;;;;;;;16.08;49.93;100292.94;10466880;28;20143;-62
2022/07/05 00:31:37;;;;;;;4.88;1.60;;;;;;;16.06;49.83;100297.47;10465237;28;20123;-62
2022/07/05 00:36:39;;;;;;;3.78;1.60;;;;;;;15.92;50.25;100310.88;10467007;28;20127;-63
2022/07/05 00:41:41;;;;;;;3.13;1.50;;;;;;;15.82;50.66;100307.25;10466793;28;20570;-63
2022/07/05 00:46:44;;;;;;;4.32;1.60;;;;;;;15.83;50.91;100305.47;10466942;28;20153;-63
2022/07/05 00:51:46;;;;;;;3.38;1.50;;;;;;;15.79;50.72;100307.50;10466330;28;21040;-62
2022/07/05 00:57:09;;;;;;;7.32;1.90;;;;;;;15.75;50.70;100307.84;10466730;28;20396;-63
2022/07/05 01:02:11;;;;;;;6.47;1.70;;;;;;;15.58;51.51;100311.75;10465222;28;20048;-62
2022/07/05 01:07:22;;;;;;;5.75;1.90;;;;;;;15.45;51.85;100310.09;10464932;28;20057;-62
2022/07/05 01:12:24;;;;;;;4.72;1.80;;;;;;;15.42;51.74;100311.16;10465153;28;20159;-62
2022/07/05 01:17:25;;;;;;;5.05;1.80;;;;;;;15.13;52.46;100320.34;10466033;28;20096;-62
2022/07/05 01:22:27;;;;;;;5.85;1.95;;;;;;;15.04;52.73;100321.84;10447267;28;20660;-62
2022/07/05 01:27:29;;;;;;;4.35;1.85;;;;;;;14.82;53.12;100328.78;10464697;28;20548;-62
2022/07/05 01:32:31;;;;;;;5.25;1.95;;;;;;;14.87;53.37;100314.31;10464112;28;20083;-62
2022/07/05 01:37:32;;;;;;;3.70;1.90;;;;;;;14.84;53.07;100313.72;10465338;28;20933;-63
2022/07/05 01:42:34;;;;;;;4.60;1.92;;;;;;;14.28;54.53;100325.53;10466708;28;20543;-62
2022/07/05 01:47:40;;;;;;;4.10;1.83;;;;;;;14.43;54.38;100321.84;10464552;28;20053;-62
2022/07/05 01:52:43;;;;;;;4.50;1.70;;;;;;;14.45;54.11;100323.41;10465854;28;20144;-62
2022/07/05 01:57:45;;;;;;;4.05;2.17;;;;;;;14.43;54.62;100319.22;10464933;28;20048;-62
2022/07/05 02:02:47;;;;;;;4.93;1.75;;;;;;;14.45;54.67;100320.78;10469275;28;20084;-62
2022/07/05 02:07:50;;;;;;;6.00;2.10;;;;;;;14.47;54.42;100318.88;10471309;28;20516;-63
2022/07/05 02:12:51;;;;;;;4.47;1.90;;;;;;;14.43;54.43;100319.22;10473539;28;20159;-62
2022/07/05 02:17:53;;;;;;;5.32;1.90;;;;;;;14.47;54.48;100316.25;10472626;28;20144;-62
2022/07/05 02:22:55;;;;;;;3.75;1.88;;;;;;;14.49;54.00;100318.81;10480220;28;20526;-62
2022/07/05 02:27:57;;;;;;;4.68;1.90;;;;;;;14.47;53.96;100312.78;10477987;28;20086;-62
2022/07/05 02:32:59;;;;;;;4.90;1.92;;;;;;;14.34;54.26;100312.81;10479969;28;20088;-62
2022/07/05 02:38:01;;;;;;;3.90;1.60;;;;;;;14.16;54.53;100316.69;10479079;28;20364;-62
2022/07/05 02:43:02;;;;;;;3.50;1.70;;;;;;;14.19;54.67;100321.72;10479316;28;20566;-62
2022/07/05 02:48:04;;;;;;;2.97;1.70;;;;;;;14.26;54.49;100323.00;10476165;28;20135;-62
2022/07/05 02:53:06;;;;;;;3.80;1.83;;;;;;;14.24;54.38;100326.69;10461808;28;20098;-62
2022/07/05 02:58:08;;;;;;;4.13;1.90;;;;;;;14.20;54.51;100325.22;10478792;28;20599;-62
2022/07/05 03:03:11;;;;;;;5.30;1.95;;;;;;;14.19;54.60;100327.00;10474250;28;20053;-62
2022/07/05 03:08:13;;;;;;;4.15;1.80;;;;;;;14.17;54.73;100334.16;10472593;28;20404;-62
2022/07/05 03:13:14;;;;;;;4.90;1.90;;;;;;;14.12;54.82;100332.78;10469474;28;20179;-63
2022/07/05 03:18:16;;;;;;;3.47;2.00;;;;;;;13.99;55.16;100337.19;10469526;28;20631;-62
2022/07/05 03:23:18;;;;;;;4.18;1.95;;;;;;;14.03;54.90;100333.38;10470858;28;20207;-62
2022/07/05 03:28:20;;;;;;;4.85;1.85;;;;;;;14.01;55.05;100343.16;10471051;28;20511;-62
2022/07/05 03:33:22;;;;;;;3.75;1.73;;;;;;;13.95;54.98;100343.59;10449742;28;20080;-63
2022/07/05 03:38:29;;;;;;;4.13;1.80;;;;;;;14.03;54.77;100349.16;10469931;28;20550;-62
2022/07/05 03:43:31;;;;;;;4.72;1.70;;;;;;;13.94;55.10;100341.91;10469934;28;20068;-62
2022/07/05 03:48:33;;;;;;;5.05;1.90;;;;;;;14.02;54.96;100350.97;10452049;28;20048;-62
2022/07/05 03:53:42;;;;;;;5.55;2.00;;;;;;;13.98;54.79;100348.66;10467792;28;20394;-63
2022/07/05 03:58:43;;;;;;;4.30;1.98;;;;;;;13.91;55.26;100344.75;10470564;28;20114;-62
2022/07/05 04:03:45;;;;;;;3.70;1.90;;;;;;;13.99;55.23;100342.44;10468896;28;20390;-63
2022/07/05 04:08:47;;;;;;;5.22;2.08;;;;;;;13.98;55.29;100346.88;10468880;28;20451;-63
2022/07/05 04:13:49;;;;;;;6.05;2.17;;;;;;;14.15;54.80;100359.72;10468297;28;20143;-62
2022/07/05 04:18:51;;;;;;;3.90;2.20;;;;;;;16.13;51.35;100351.47;10469287;28;20135;-62
2022/07/05 04:23:53;;;;;;;5.38;1.98;;;;;;;18.65;45.67;100338.69;10467461;28;20048;-63
2022/07/05 04:28:55;;;;;;;4.45;1.98;;;;;;;20.23;42.01;100336.66;10468273;28;20127;-62
2022/07/05 04:33:58;;;;;;;5.88;2.00;;;;;;;21.71;39.27;100340.00;10467033;28;20053;-62
2022/07/05 04:39:00;;;;;;;3.42;1.80;;;;;;;22.98;36.64;100334.91;10450393;28;20048;-63
2022/07/05 04:44:01;;;;;;;3.58;1.73;;;;;;;24.65;33.98;100339.69;10460382;28;20493;-63
2022/07/05 04:49:03;;;;;;;3.55;1.55;;;;;;;25.66;32.00;100336.88;10466559;28;20159;-63
2022/07/05 04:54:05;;;;;;;5.93;1.60;;;;;;;26.19;30.78;100341.31;10466264;28;20172;-63
2022/07/05 04:59:07;;;;;;;2.80;1.60;;;;;;;26.11;30.72;100338.69;10467510;28;20127;-63
2022/07/05 05:04:08;;;;;;;4.68;1.90;;;;;;;27.25;29.18;100333.75;10465575;28;20064;-63
2022/07/05 05:09:10;;;;;;;4.00;1.55;;;;;;;28.11;27.59;100329.03;10464457;28;20135;-63
2022/07/05 05:14:12;;;;;;;3.42;1.65;;;;;;;28.62;26.73;100337.69;10466923;28;20702;-62
2022/07/05 05:19:13;;;;;;;5.35;1.67;;;;;;;28.98;26.20;100341.00;10467581;28;20048;-63
2022/07/05 05:24:15;;;;;;;3.28;1.63;;;;;;;29.62;25.58;100332.53;10467054;28;20322;-63
2022/07/05 05:29:18;;;;;;;3.17;1.50;;;;;;;29.87;25.15;100331.72;10465675;28;20047;-63
2022/07/05 05:34:19;;;;;;;3.25;1.50;;;;;;;28.40;26.29;100344.16;10466659;28;20173;-61
2022/07/05 05:39:21;;;;;;;3.60;1.65;;;;;;;25.49;30.21;100359.41;10465474;28;20120;-62
2022/07/05 05:44:23;;;;;;;4.63;1.50;;;;;;;23.51;33.25;100371.94;10466321;28;20731;-62
2022/07/05 05:49:25;;;;;;;6.35;1.80;;;;;;;22.27;35.53;100385.78;10467027;28;20088;-62
2022/07/05 05:54:27;;;;;;;4.88;1.70;;;;;;;21.57;36.98;100380.47;10466856;28;20136;-63
2022/07/05 05:59:28;;;;;;;5.20;1.95;;;;;;;20.99;38.30;100387.91;10472606;28;20048;-62
2022/07/05 06:04:30;;;;;;;4.80;1.90;;;;;;;20.75;39.15;100385.78;10470448;28;20136;-64
2022/07/05 06:09:32;;;;;;;5.95;1.90;;;;;;;20.71;39.39;100391.53;10473973;28;20044;-62
2022/07/05 06:14:33;;;;;;;8.32;1.90;;;;;;;20.77;39.67;100388.28;10474123;28;20338;-63
2022/07/05 06:19:35;;;;;;;7.45;2.10;;;;;;;20.81;39.97;100398.47;10474964;28;20088;-63
2022/07/05 06:24:37;;;;;;;5.60;2.22;;;;;;;20.56;40.29;100400.94;10474272;28;20467;-63
2022/07/05 06:29:39;;;;;;;10.18;2.15;;;;;;;20.77;40.41;100397.09;10474919;28;20465;-62
2022/07/05 06:34:41;;;;;;;5.97;2.20;;;;;;;21.05;40.19;100398.81;10473549;28;20205;-62
2022/07/05 06:39:43;;;;;;;5.97;2.17;;;;;;;21.30;39.75;100401.75;10455544;28;20045;-62
2022/07/05 06:44:45;;;;;;;6.60;1.92;;;;;;;21.60;39.44;100396.97;10473661;28;20049;-62
2022/07/05 06:49:47;;;;;;;6.47;2.40;;;;;;;21.65;39.21;100404.50;10472765;28;20056;-63
2022/07/05 06:54:49;;;;;;;7.25;1.95;;;;;;;22.05;38.84;100394.25;10473789;28;20070;-63
2022/07/05 06:59:51;;;;;;;7.25;2.00;;;;;;;22.45;38.59;100391.91;10472264;28;20326;-64
2022/07/05 07:04:57;;;;;;;5.90;2.20;;;;;;;23.40;37.12;100395.28;10471203;28;20059;-63
2022/07/05 07:10:16;;;;;;;5.43;1.87;;;;;;;24.59;35.45;100386.66;10473017;28;20071;-63
2022/07/05 07:15:18;;;;;;;6.70;2.00;;;;;;;26.12;33.42;100380.56;10472330;28;20519;-63
2022/07/05 07:20:20;;;;;;;7.60;2.00;;;;;;;27.88;30.29;100375.97;10472127;28;20102;-63
2022/07/05 07:25:25;;;;;;;7.72;2.10;;;;;;;29.24;28.78;100369.06;10472385;28;20044;-63
2022/07/05 07:30:28;;;;;;;7.53;2.10;;;;;;;29.34;27.93;100370.34;10472164;28;20308;-63
2022/07/05 07:35:30;;;;;;;6.03;2.58;;;;;;;29.80;27.25;100367.81;10471766;28;20100;-63
2022/07/05 07:40:31;;;;;;;9.45;2.20;;;;;;;30.03;26.57;100370.16;10471825;28;20084;-64
2022/07/05 07:45:33;;;;;;;3.75;1.80;;;;;;;30.36;26.02;100366.41;10470940;28;20132;-64
2022/07/05 07:50:35;;;;;;;7.93;1.88;;;;;;;30.83;26.10;100365.28;10471298;28;20041;-64
2022/07/05 07:55:37;;;;;;;5.35;1.80;;;;;;;30.78;25.15;100370.53;10470983;28;20159;-63
2022/07/05 08:00:40;;;;;;;6.68;1.90;;;;;;;31.07;24.68;100374.63;10470685;28;20103;-64
2022/07/05 08:05:42;;;;;;;7.80;2.17;;;;;;;31.27;24.33;100372.66;10468723;28;20094;-64
2022/07/05 08:10:44;;;;;;;7.20;1.83;;;;;;;31.71;23.48;100366.41;10469964;28;20432;-64
2022/07/05 08:15:46;;;;;;;5.40;1.90;;;;;;;31.63;23.14;100369.34;10469952;28;20080;-64
2022/07/05 08:26:08;;;;;;;5.10;2.00;;;;;;;31.12;23.95;100358.56;10469976;28;20147;-64
2022/07/05 08:31:09;;;;;;;4.80;1.92;;;;;;;31.32;23.47;100356.59;10469465;28;20148;-64
2022/07/05 08:36:11;;;;;;;4.60;1.83;;;;;;;31.81;23.10;100354.06;10469133;28;20048;-64
2022/07/05 08:41:20;;;;;;;5.53;1.83;;;;;;;32.00;23.27;100354.97;10467994;28;20567;-64
2022/07/05 08:46:23;;;;;;;;;;;;;;;31.43;23.47;100348.63;10465360;28;20469;-65
2022/07/05 08:51:27;;;;;;;5.95;2.00;;;;;;;30.66;24.54;100348.72;10466297;28;19924;-65
2022/07/05 08:56:30;;;;;;;6.18;2.00;;;;;;;29.14;25.38;100355.16;10464097;28;20420;-64
2022/07/05 09:01:53;;;;;;;3.75;1.90;;;;;;;28.00;27.51;100361.81;10465598;28;20157;-65
2022/07/05 09:07:01;;;;;;;5.43;2.00;;;;;;;27.91;26.85;100357.59;10467636;28;20052;-64
2022/07/05 09:12:04;;;;;;;5.93;2.15;;;;;;;28.76;25.27;100362.81;10461067;28;20310;-66
2022/07/05 09:17:26;;;;;;;9.93;2.00;;;;;;;26.84;27.35;100360.25;10465261;28;20496;-65
2022/07/05 09:22:41;;;;;;;5.32;1.65;;;;;;;26.36;28.36;100368.81;10468581;28;20044;-63
2022/07/05 09:27:49;;;;;;;4.18;1.70;;;;;;;27.20;26.75;100360.34;10466915;28;20141;-63
2022/07/05 09:33:12;;;;;;;7.10;1.87;;;;;;;28.86;25.29;100352.56;10464527;28;20488;-64
2022/07/05 09:38:18;;;;;;;6.60;1.80;;;;;;;29.78;23.89;100345.63;10466223;28;21034;-64
2022/07/05 09:43:25;;;;;;;5.78;1.92;;;;;;;29.24;25.25;100358.28;10467958;28;20048;-65
2022/07/05 09:48:29;;;;;;;5.82;1.80;;;;;;;27.84;26.48;100361.25;10462167;28;20055;-65
2022/07/05 09:53:45;;;;;;;5.25;1.58;;;;;;;29.08;24.92;100352.25;10463636;28;20500;-64
2022/07/05 09:58:47;;;;;;;5.57;1.80;;;;;;;29.67;23.71;100354.31;10465909;28;20459;-64
2022/07/05 10:04:02;;;;;;;4.78;1.70;;;;;;;30.10;24.05;100352.09;10464529;28;20592;-64
2022/07/05 10:09:05;;;;;;;4.70;1.60;;;;;;;30.17;23.65;100345.66;10460440;28;20233;-65
2022/07/05 10:14:11;;;;;;;5.10;1.70;;;;;;;28.87;24.18;100354.19;10459749;28;20131;-64
2022/07/05 10:19:18;;;;;;;6.20;1.85;;;;;;;28.16;25.98;100371.47;10463741;28;20469;-65
2022/07/05 10:24:20;;;;;;;4.88;1.80;;;;;;;28.36;26.24;100366.28;10465465;28;20305;-65
2022/07/05 10:29:22;;;;;;;5.97;1.70;;;;;;;27.40;26.60;100364.09;10461524;28;20107;-65
2022/07/05 10:34:25;;;;;;;6.80;1.65;;;;;;;28.00;26.15;100353.75;10444376;28;20498;-65
2022/07/05 10:39:47;;;;;;;4.47;1.70;;;;;;;28.01;26.14;100359.97;10464338;28;20501;-64
2022/07/05 10:44:49;;;;;;;3.30;1.80;;;;;;;28.61;24.88;100359.41;10472115;28;20090;-64
2022/07/05 10:50:01;;;;;;;7.57;2.28;;;;;;;28.28;25.94;100348.38;10467340;28;20281;-65
2022/07/05 10:55:23;;;;;;;7.55;2.25;;;;;;;27.13;27.72;100354.03;10457891;28;20601;-65
2022/07/05 11:00:25;;;;;;;4.63;1.70;;;;;;;27.09;27.79;100358.94;10464402;28;20158;-65
2022/07/05 11:05:27;;;;;;;3.20;1.70;;;;;;;27.79;26.64;100355.63;10462404;28;20134;-65
2022/07/05 11:10:31;;;;;;;5.15;1.70;;;;;;;27.94;26.15;100348.31;10464865;28;20435;-65
2022/07/05 11:15:33;;;;;;;4.03;1.63;;;;;;;28.02;26.78;100346.34;10463757;28;20056;-65
2022/07/05 11:20:35;;;;;;;4.57;1.60;;;;;;;27.82;26.67;100339.13;10463114;28;20480;-65
2022/07/05 11:25:39;;;;;;;5.35;1.60;;;;;;;27.88;26.34;100341.03;10459361;28;20048;-66
2022/07/05 11:30:55;;;;;;;5.78;1.80;;;;;;;28.18;25.83;100337.13;10463886;28;20076;-64
2022/07/05 11:35:58;;;;;;;6.55;2.05;;;;;;;28.18;26.56;100337.97;10465688;28;20149;-65
2022/07/05 11:41:13;;;;;;;4.13;1.88;;;;;;;27.88;26.76;100327.59;10464478;28;20118;-66
2022/07/05 11:46:18;;;;;;;5.05;1.80;;;;;;;27.64;27.08;100333.31;10462540;28;20060;-65
2022/07/05 11:51:40;;;;;;;4.07;1.70;;;;;;;28.23;26.40;100324.78;10440769;28;20223;-65
2022/07/05 11:56:42;;;;;;;6.78;2.20;;;;;;;28.42;25.40;100325.16;10463209;28;20130;-65
2022/07/05 12:01:45;;;;;;;3.22;1.70;;;;;;;28.11;26.19;100312.06;10462852;28;20178;-66
2022/07/05 12:06:48;;;;;;;3.25;1.80;;;;;;;27.99;26.05;100319.00;10462132;28;20064;-65
2022/07/05 12:17:20;;;;;;;6.25;1.98;;;;;;;27.54;26.38;100319.38;10462659;28;20048;-66
2022/07/05 12:22:34;;;;;;;4.93;2.00;;;;;;;27.43;25.95;100307.28;10459618;28;20771;-65
2022/07/05 12:27:38;;;;;;;7.90;1.92;;;;;;;27.04;27.01;100298.75;10460982;28;20182;-65
2022/07/05 12:33:07;;;;;;;5.80;1.60;;;;;;;27.29;26.77;100303.63;10462911;28;20589;-65
2022/07/05 12:38:16;;;;;;;5.40;2.20;;;;;;;27.59;26.45;100295.44;10459777;28;20059;-65
2022/07/05 12:43:18;;;;;;;;;;;;;;;26.80;26.51;100294.53;10455727;28;20044;-66
2022/07/05 12:48:39;;;;;;;4.18;1.60;;;;;;;27.22;26.78;100281.22;10461164;28;19928;-65
2022/07/05 12:59:10;;;;;;;6.93;1.70;;;;;;;27.22;26.66;100294.66;10460360;28;20041;-64
2022/07/05 13:04:17;;;;;;;4.18;1.83;;;;;;;27.03;27.02;100286.34;10457586;28;20095;-66
2022/07/05 13:09:27;;;;;;;4.18;1.95;;;;;;;26.31;27.74;100290.72;10462270;28;20155;-66
2022/07/05 13:14:29;;;;;;;5.05;1.90;;;;;;;26.34;27.57;100291.22;10459528;28;20052;-66
2022/07/05 13:19:31;;;;;;;5.40;1.85;;;;;;;26.84;27.56;100281.56;10445758;28;20136;-67
2022/07/05 13:24:33;;;;;;;6.32;2.00;;;;;;;26.60;28.29;100286.25;10458442;28;20162;-66
2022/07/05 13:29:36;;;;;;;5.43;1.70;;;;;;;26.53;27.61;100289.81;10466337;28;20052;-67
2022/07/05 13:34:38;;;;;;;4.60;1.70;;;;;;;26.68;27.79;100291.50;10467778;28;20090;-66
2022/07/05 13:39:40;;;;;;;5.13;1.80;;;;;;;27.18;26.97;100287.16;10465682;28;20056;-65
2022/07/05 13:44:41;;;;;;;4.57;1.90;;;;;;;26.95;27.59;100295.38;10468314;28;20341;-65
2022/07/05 13:49:43;;;;;;;4.82;1.90;;;;;;;26.60;27.29;100298.81;10467038;28;20135;-66
2022/07/05 13:54:45;;;;;;;5.38;1.73;;;;;;;26.88;27.70;100288.22;10466824;28;20139;-66
2022/07/05 13:59:46;;;;;;;6.68;1.70;;;;;;;26.86;27.28;100293.78;10467497;28;20139;-66
2022/07/05 14:04:48;;;;;;;4.60;1.90;;;;;;;26.45;27.88;100285.38;10464779;28;20536;-66
2022/07/05 14:09:50;;;;;;;5.43;1.75;;;;;;;26.94;27.24;100279.44;10467882;28;20144;-65
2022/07/05 14:14:52;;;;;;;6.07;1.83;;;;;;;27.23;27.10;100285.59;10468878;28;20151;-66
2022/07/05 14:19:54;;;;;;;5.70;1.70;;;;;;;27.20;26.87;100269.03;10475148;28;20424;-65
2022/07/05 14:24:55;;;;;;;4.68;1.70;;;;;;;27.23;26.63;100295.50;10475447;28;20133;-66
2022/07/05 14:29:57;;;;;;;4.05;1.80;;;;;;;27.24;26.89;100276.50;10473944;28;20143;-65
2022/07/05 14:34:59;;;;;;;7.88;1.83;;;;;;;27.26;26.40;100277.16;10456763;28;20454;-65
2022/07/05 14:40:04;;;;;;;4.65;1.73;;;;;;;27.49;25.85;100274.28;10474429;28;20543;-65
2022/07/05 14:45:06;;;;;;;6.60;1.60;;;;;;;27.22;25.57;100278.53;10474151;28;20048;-65
2022/07/05 14:50:08;;;;;;;4.75;1.70;;;;;;;27.38;25.93;100283.66;10472955;28;20080;-65
2022/07/05 14:55:10;;;;;;;3.53;1.50;;;;;;;27.69;25.16;100269.09;10473971;28;20163;-65
2022/07/05 15:00:14;;;;;;;4.32;1.50;;;;;;;27.66;24.89;100285.59;10455860;28;20060;-64
2022/07/05 15:05:16;;;;;;;5.82;1.60;;;;;;;27.54;24.56;100277.22;10472153;28;20502;-64
2022/07/05 15:10:18;;;;;;;5.47;1.73;;;;;;;27.52;25.00;100274.72;10438943;28;20895;-66
2022/07/05 15:15:19;;;;;;;5.03;1.60;;;;;;;27.62;25.07;100270.88;10472887;28;20156;-64
2022/07/05 15:20:22;;;;;;;4.40;1.75;;;;;;;27.37;25.33;100265.06;10471533;28;20076;-65
2022/07/05 15:25:24;;;;;;;6.35;1.75;;;;;;;27.10;24.89;100269.28;10472744;28;20051;-64
2022/07/05 15:30:25;;;;;;;5.28;1.83;;;;;;;27.14;25.22;100261.69;10471352;28;20451;-64
2022/07/05 15:35:27;;;;;;;4.50;1.83;;;;;;;27.18;24.69;100260.31;10470961;28;20323;-64
2022/07/05 15:40:29;;;;;;;5.13;1.50;;;;;;;27.08;24.79;100267.81;10472076;28;20487;-63
2022/07/05 15:45:31;;;;;;;3.13;1.50;;;;;;;27.15;24.93;100264.22;10471969;28;20048;-64
2022/07/05 15:50:33;;;;;;;3.22;1.50;;;;;;;27.03;24.75;100263.03;10471433;28;20048;-65
2022/07/05 15:55:36;;;;;;;2.90;1.40;;;;;;;26.84;25.19;100262.78;10470927;28;20642;-65
2022/07/05 16:00:39;;;;;;;5.70;1.50;;;;;;;26.93;25.29;100262.50;10470416;28;20075;-65
2022/07/05 16:05:41;;;;;;;4.55;1.70;;;;;;;26.79;25.62;100270.59;10470334;28;20738;-65
2022/07/05 16:10:45;;;;;;;2.63;1.50;;;;;;;26.69;24.88;100263.66;10470351;28;20443;-64
2022/07/05 16:21:09;;;;;;;3.35;1.60;;;;;;;26.55;25.70;100266.31;10470487;28;20055;-65
2022/07/05 16:26:14;;;;;;;4.03;1.50;;;;;;;26.62;25.58;100269.97;10469022;28;20106;-65
2022/07/05 16:31:16;;;;;;;4.35;1.73;;;;;;;26.81;25.75;100274.75;10458683;28;20626;-66
2022/07/05 16:36:20;;;;;;;4.45;1.50;;;;;;;26.77;25.47;100275.31;10466902;28;20067;-66
2022/07/05 16:41:22;;;;;;;3.33;1.67;;;;;;;26.61;25.50;100276.31;10465318;28;20574;-66
2022/07/05 16:46:25;;;;;;;3.67;1.50;;;;;;;26.66;25.89;100269.41;10467223;28;20123;-66
2022/07/05 16:51:28;;;;;;;11.93;2.00;;;;;;;26.53;25.53;100274.56;10465534;28;20567;-66
2022/07/05 16:56:29;;;;;;;4.32;1.70;;;;;;;26.38;25.66;100262.19;10467026;28;20139;-65
2022/07/05 17:01:31;;;;;;;6.47;1.40;;;;;;;26.39;25.21;100269.19;10466573;28;20473;-65
2022/07/05 17:06:33;;;;;;;5.15;1.65;;;;;;;26.38;25.75;100271.06;10441017;28;20512;-65
2022/07/05 17:11:35;;;;;;;5.00;1.75;;;;;;;26.28;25.58;100275.03;10464950;28;20131;-65
2022/07/05 17:16:36;;;;;;;6.80;1.40;;;;;;;26.31;25.61;100278.16;10466988;28;20143;-65
2022/07/05 17:21:38;;;;;;;3.92;1.52;;;;;;;26.36;25.70;100274.94;10462059;28;20446;-64
2022/07/05 17:26:40;;;;;;;2.22;1.40;;;;;;;26.23;25.56;100274.72;10456342;28;20048;-65
2022/07/05 17:31:42;;;;;;;6.60;1.67;;;;;;;26.01;25.76;100278.31;10463736;28;20550;-65
2022/07/05 17:36:44;;;;;;;3.38;1.60;;;;;;;26.07;25.85;100282.94;10467304;28;20052;-65
2022/07/05 17:41:46;;;;;;;6.75;2.50;;;;;;;25.95;26.52;100284.38;10464274;28;20123;-65
2022/07/05 17:46:48;;;;;;;5.50;2.10;;;;;;;25.69;26.58;100285.59;10467223;28;20059;-65
2022/07/05 17:51:49;;;;;;;5.88;1.73;;;;;;;25.61;26.38;100307.09;10470720;28;20076;-65
2022/07/05 17:57:11;;;;;;;4.38;1.60;;;;;;;25.40;26.73;100298.91;10473239;28;20091;-66
2022/07/05 18:02:13;;;;;;;4.60;1.60;;;;;;;25.15;27.18;100304.53;10472973;28;20076;-65
2022/07/05 18:07:14;;;;;;;4.40;1.70;;;;;;;24.95;27.26;100301.47;10473968;28;20095;-66
2022/07/05 18:12:17;;;;;;;3.80;2.00;;;;;;;24.99;27.63;100311.66;10473714;28;20076;-66
2022/07/05 18:17:18;;;;;;;12.20;6.32;;;;;;;25.10;27.57;100318.47;10471736;28;20155;-66
2022/07/05 18:22:20;;;;;;;9.77;6.20;;;;;;;25.09;27.50;100322.13;10455020;28;20311;-65
2022/07/05 18:27:22;;;;;;;8.60;4.25;;;;;;;25.09;27.60;100322.97;10472223;28;20447;-66
2022/07/05 18:32:24;;;;;;;6.68;2.67;;;;;;;24.85;27.45;100322.25;10473476;28;20079;-65
2022/07/05 18:37:25;;;;;;;5.43;2.40;;;;;;;24.63;27.80;100325.66;10471913;28;20056;-66
2022/07/05 18:42:28;;;;;;;3.92;1.60;;;;;;;24.48;28.16;100330.03;10472260;28;20139;-65
2022/07/05 18:47:30;;;;;;;5.47;1.83;;;;;;;24.33;28.43;100335.22;10472488;28;20316;-66
2022/07/05 18:52:32;;;;;;;2.80;1.52;;;;;;;24.23;28.99;100337.25;10461771;28;20475;-65
2022/07/05 18:57:33;;;;;;;4.00;1.65;;;;;;;24.08;29.01;100337.09;10462783;28;20190;-65
2022/07/05 19:02:36;;;;;;;5.65;1.70;;;;;;;23.83;29.27;100351.47;10450444;28;20076;-65
2022/07/05 19:18:19;;;;;;;7.95;1.80;;;;;;;23.22;30.29;100364.31;10449651;28;20049;-66
2022/07/05 19:23:21;;;;;;;5.63;1.70;;;;;;;23.00;31.67;100362.25;10450009;28;20047;-65
2022/07/05 19:28:24;;;;;;;6.82;1.70;;;;;;;22.86;31.19;100355.66;10470348;28;20052;-65
2022/07/05 19:33:27;;;;;;;3.92;1.50;;;;;;;22.65;31.42;100376.53;10467555;28;20457;-65
2022/07/05 19:38:28;;;;;;;6.35;1.70;;;;;;;22.17;32.51;100374.38;10467421;28;20048;-65
2022/07/05 19:43:30;;;;;;;3.38;1.58;;;;;;;21.94;33.39;100391.81;10445894;28;20076;-64
2022/07/05 19:48:32;;;;;;;2.92;1.50;;;;;;;21.71;33.81;100398.56;10466521;28;20131;-64
2022/07/05 19:53:34;;;;;;;6.97;1.90;;;;;;;21.63;33.72;100414.47;10465576;28;20583;-64
2022/07/05 19:58:36;;;;;;;5.22;1.80;;;;;;;21.61;33.65;100416.44;10448296;28;20202;-64
2022/07/05 20:03:38;;;;;;;5.30;1.70;;;;;;;21.49;34.30;100420.31;10467132;28;20076;-65
2022/07/05 20:08:40;;;;;;;3.85;1.67;;;;;;;21.41;34.99;100426.38;10467559;28;20060;-65
2022/07/05 20:13:42;;;;;;;6.32;1.80;;;;;;;21.32;35.05;100431.75;10466887;28;20060;-65
2022/07/05 20:18:43;;;;;;;3.22;1.55;;;;;;;21.34;35.23;100435.94;10464911;28;20787;-65
2022/07/05 20:23:45;;;;;;;5.88;1.85;;;;;;;21.33;35.40;100438.75;10466458;28;20149;-65
2022/07/05 20:28:47;;;;;;;8.45;2.20;;;;;;;21.27;35.46;100444.63;10465547;28;20135;-64
2022/07/05 20:33:49;;;;;;;5.35;1.90;;;;;;;21.17;35.87;100449.97;10458874;28;20080;-65
2022/07/05 20:38:50;;;;;;;5.65;1.85;;;;;;;21.08;36.77;100462.34;10464685;28;20113;-65
2022/07/05 20:43:53;;;;;;;6.30;2.10;;;;;;;21.05;36.96;100467.94;10465347;28;20060;-64
2022/07/05 20:48:57;;;;;;;7.95;2.35;;;;;;;20.90;37.31;100468.56;10467685;28;20055;-65
2022/07/05 20:53:58;;;;;;;6.57;2.20;;;;;;;20.80;37.74;100473.91;10468166;28;20471;-65
2022/07/05 20:59:00;;;;;;;5.88;2.10;;;;;;;20.75;37.81;100476.16;10465573;28;20514;-64
2022/07/05 21:04:02;;;;;;;5.35;2.20;;;;;;;20.65;38.15;100485.97;10464431;28;20431;-65
2022/07/05 21:09:04;;;;;;;5.53;2.20;;;;;;;20.43;38.66;100486.25;10466897;28;20048;-64
2022/07/05 21:14:06;;;;;;;3.75;2.08;;;;;;;20.39;39.15;100495.47;10466859;28;20083;-65
2022/07/05 21:19:07;;;;;;;7.05;2.40;;;;;;;20.30;39.35;100498.97;10463914;28;20084;-65
2022/07/05 21:24:09;;;;;;;6.72;2.20;;;;;;;20.24;39.47;100497.72;10448097;28;20077;-64
2022/07/05 21:29:11;;;;;;;4.95;2.15;;;;;;;20.16;39.77;100507.34;10466749;28;20465;-65
2022/07/05 21:34:12;;;;;;;7.13;2.30;;;;;;;20.09;39.78;100520.34;10465932;28;20049;-64
2022/07/05 21:39:14;;;;;;;5.15;2.20;;;;;;;20.11;39.85;100522.88;10464166;28;20087;-64
2022/07/05 21:44:17;;;;;;;7.35;2.30;;;;;;;20.10;39.98;100537.13;10466302;28;20182;-65
2022/07/05 21:49:19;;;;;;;7.00;2.53;;;;;;;20.03;40.31;100547.44;10465228;28;20056;-65
2022/07/05 21:54:23;;;;;;;4.93;2.10;;;;;;;19.98;40.53;100549.69;10466462;28;20133;-64
2022/07/05 22:04:47;;;;;;;;;;;;;;;19.42;41.75;100554.63;10465194;28;20113;-63
2022/07/05 22:09:49;;;;;;;7.03;2.10;;;;;;;19.62;41.62;100560.00;10459050;28;20039;-64
2022/07/05 22:14:51;;;;;;;5.53;2.10;;;;;;;19.60;41.16;100567.28;10459544;28;20159;-64
2022/07/05 22:19:52;;;;;;;6.63;2.05;;;;;;;19.49;41.53;100576.16;10456440;28;20761;-64
2022/07/05 22:24:54;;;;;;;4.18;2.00;;;;;;;19.39;41.88;100577.94;10457997;28;20370;-64
2022/07/05 22:29:56;;;;;;;5.00;2.35;;;;;;;19.45;42.05;100575.59;10457908;28;20139;-64
2022/07/05 22:34:58;;;;;;;6.85;2.08;;;;;;;19.45;42.47;100588.84;10454856;28;20311;-64
2022/07/05 22:40:01;;;;;;;5.70;1.88;;;;;;;19.43;42.51;100589.94;10443360;28;20506;-64
2022/07/05 22:45:03;;;;;;;5.88;2.10;;;;;;;19.41;42.40;100595.41;10469074;28;20577;-64
2022/07/05 22:50:05;;;;;;;6.05;1.80;;;;;;;19.45;42.42;100596.81;10470590;28;20544;-64
2022/07/05 22:55:08;;;;;;;5.53;2.10;;;;;;;19.47;42.32;100599.31;10469689;28;20076;-64
2022/07/05 23:00:10;;;;;;;4.47;2.10;;;;;;;19.50;41.84;100600.88;10469073;28;20095;-64
2022/07/05 23:05:12;;;;;;;5.15;2.00;;;;;;;19.42;41.83;100599.72;10465815;28;20545;-64
2022/07/05 23:10:14;;;;;;;4.18;1.77;;;;;;;19.28;42.21;100601.84;10463304;28;20086;-64
2022/07/05 23:15:15;;;;;;;6.40;2.00;;;;;;;19.16;41.84;100609.06;10468457;28;20503;-64
2022/07/05 23:20:17;;;;;;;5.90;2.53;;;;;;;19.07;42.33;100603.69;10467798;28;20124;-64
2022/07/05 23:25:19;;;;;;;4.97;2.13;;;;;;;18.93;42.61;100601.34;10465677;28;20079;-64
2022/07/05 23:30:20;;;;;;;11.30;2.42;;;;;;;18.90;42.68;100610.38;10465850;28;20548;-64
2022/07/05 23:35:22;;;;;;;6.07;2.00;;;;;;;18.90;42.28;100618.34;10467135;28;20136;-63
2022/07/05 23:40:24;;;;;;;5.75;1.77;;;;;;;18.88;42.03;100611.47;10468819;28;20128;-63
2022/07/05 23:45:26;;;;;;;6.28;2.13;;;;;;;18.78;41.83;100626.47;10466698;28;20378;-63
2022/07/05 23:50:27;;;;;;;6.25;1.98;;;;;;;18.67;42.25;100625.53;10465685;28;20664;-64